• Join FlightAware (Why Join?)
  • Login
  • US Flag 
06:19PM EDT


 

Airport Tracker/Info


-or-


 

Live Flight TrackerFlight Track Log ✈ N6610D ✈ 05-May-2013 ✈ KSAC - KPAO

Flight Track Log - Related Links

Times and Time Zones

All times are in EDT time to prevent confusion due to time zone crossing. See the N6610D flight status page for this flight to view local times or setup timezone preferences in your user account.

Time Position Orientation Groundspeed Altitude Reporting Facility
EDT Latitude Longitude Course Direction KTS MPH feet Rate Location/Type
10:32AM 38.5000 -121.5000 142° Southeast 62 71 600  Level Northern Cal TRACON
10:33AM 38.4833 -121.4833 142° Southeast 74 85 1,500 720 Climbing Northern Cal TRACON
10:34AM 38.4667 -121.4667 142° Southeast 78 90 2,200 600 Climbing Northern Cal TRACON
10:35AM 38.4500 -121.4667 180° South 80 92 2,600 600 Climbing Northern Cal TRACON
10:36AM 38.4333 -121.4500 142° Southeast 81 93 3,300 600 Climbing Northern Cal TRACON
10:37AM 38.4167 -121.4333 142° Southeast 89 102 3,800 420 Climbing Northern Cal TRACON
10:38AM 38.4000 -121.4333 180° South 88 101 4,200 420 Climbing Northern Cal TRACON
10:39AM 38.3833 -121.4500 218° Southwest 82 94 4,700 420 Climbing Northern Cal TRACON
10:40AM 38.3667 -121.4667 218° Southwest 78 90 5,000 420 Climbing Northern Cal TRACON
10:41AM 38.3500 -121.4833 218° Southwest 79 91 5,500 420 Climbing Northern Cal TRACON
10:42AM 38.3333 -121.4833 180° South 76 87 5,800 180 Climbing Northern Cal TRACON
10:43AM 38.3000 -121.5000 201° Southwest 78 90 5,900 120 Climbing Northern Cal TRACON
10:44AM 38.2833 -121.5000 180° South 83 96 6,100 60 Climbing Northern Cal TRACON
10:44AM 38.2667 -121.5167 218° Southwest 85 98 6,100 -60 Level Northern Cal TRACON
10:45AM 38.2333 -121.5333 201° Southwest 88 101 6,000 -60 Descending Northern Cal TRACON
10:46AM 38.2167 -121.5333 180° South 84 97 6,000  Level Northern Cal TRACON
10:47AM 38.2000 -121.5333 180° South 83 96 6,100  Climbing Northern Cal TRACON
10:48AM 38.1667 -121.5333 180° South 82 94 6,000 -60 Descending Northern Cal TRACON
10:49AM 38.1500 -121.5500 218° Southwest 84 97 6,000  Level Northern Cal TRACON
10:50AM 38.1333 -121.5500 180° South 82 94 6,000  Level Northern Cal TRACON
10:51AM 38.1211 -121.5467 168° South 83 96 6,000 60 Level Oakland Center
10:52AM 38.0989 -121.5497 186° South 81 93 6,100  Climbing Oakland Center
10:53AM 38.0769 -121.5525 186° South 80 92 6,000 -60 Descending Oakland Center
10:54AM 38.0553 -121.5556 186° South 79 91 6,000  Level Oakland Center
10:55AM 38.0358 -121.5589 188° South 73 84 6,100  Climbing Oakland Center
10:56AM 38.0133 -121.5608 184° South 77 89 6,000 -60 Descending Oakland Center
10:57AM 37.9922 -121.5647 188° South 78 90 6,000  Level Oakland Center
10:58AM 37.9703 -121.5686 188° South 80 92 6,000  Level Oakland Center
10:59AM 37.9467 -121.5714 185° South 83 96 6,000  Level Oakland Center
11:00AM 37.9244 -121.5739 185° South 81 93 6,100  Climbing Oakland Center
11:01AM 37.8972 -121.5764 184° South 82 94 6,000 -60 Descending Oakland Center
11:02AM 37.8761 -121.5794 187° South 78 90 6,000  Level Oakland Center
11:02AM 37.8667 -121.5833 198° South 81 93 6,000  Level Northern Cal TRACON
11:03AM 37.8500 -121.5833 180° South 79 91 6,000  Level Northern Cal TRACON
11:04AM 37.8167 -121.5833 180° South 75 86 6,000  Level Northern Cal TRACON
11:05AM 37.8000 -121.5833 180° South 87 100 6,000  Level Northern Cal TRACON
11:06AM 37.7833 -121.6000 218° Southwest 84 97 6,000  Level Northern Cal TRACON
11:07AM 37.7500 -121.6000 180° South 82 94 6,000  Level Northern Cal TRACON
11:08AM 37.7333 -121.6000 180° South 86 99 6,000  Level Northern Cal TRACON
11:09AM 37.7000 -121.6000 180° South 86 99 6,000  Level Northern Cal TRACON
11:10AM 37.6833 -121.6000 180° South 92 106 6,000  Level Northern Cal TRACON
11:11AM 37.6500 -121.6167 202° Southwest 89 102 6,000  Level Northern Cal TRACON
11:12AM 37.6333 -121.6167 180° South 85 98 6,100  Climbing Northern Cal TRACON
11:13AM 37.6167 -121.6167 180° South 88 101 6,000 -60 Descending Northern Cal TRACON
11:14AM 37.5833 -121.6167 180° South 91 105 6,000  Level Northern Cal TRACON
11:15AM 37.5500 -121.6333 202° Southwest 96 110 6,000  Level Northern Cal TRACON
11:16AM 37.5333 -121.6500 218° Southwest 93 107 6,100  Climbing Northern Cal TRACON
11:17AM 37.5167 -121.6667 218° Southwest 84 97 6,000 -60 Descending Northern Cal TRACON
11:18AM 37.5000 -121.6833 218° Southwest 85 98 6,000  Level Northern Cal TRACON
11:19AM 37.4833 -121.7167 238° Southwest 81 93 6,000  Level Northern Cal TRACON
11:20AM 37.4667 -121.7333 218° Southwest 87 100 6,000  Level Northern Cal TRACON
11:21AM 37.4667 -121.7500 270° West 83 96 6,000 -120 Level Northern Cal TRACON
11:22AM 37.4500 -121.7833 238° Southwest 107 123 5,800 -420 Descending Northern Cal TRACON
11:23AM 37.4333 -121.8167 238° Southwest 102 117 5,200 -600 Descending Northern Cal TRACON
11:24AM 37.4167 -121.8333 218° Southwest 92 106 4,600 -600 Descending Northern Cal TRACON
11:25AM 37.4000 -121.8667 238° Southwest 109 125 4,100 -600 Descending Northern Cal TRACON
11:26AM 37.3833 -121.9000 238° Southwest 119 137 3,500 -600 Descending Northern Cal TRACON
11:27AM 37.3697 -121.9294 240° Southwest 119 137 3,100 -300 Descending Oakland Center
11:28AM 37.3831 -121.9689 293° West 124 143 3,000 -180 Descending Oakland Center
11:29AM 37.4042 -122.0036 307° West 125 144 2,800 -540 Descending Oakland Center
11:30AM 37.4214 -122.0444 298° West 128 147 2,000 -840 Descending Oakland Center
11:31AM 37.4508 -122.0878 311° West 133 153 1,100 -720 Descending Oakland Center
11:32AM 37.4833 -122.1167 325° Northwest 105 121 600 -480 Descending Northern Cal TRACON
11:36AM 37.4606 -122.1053 158° South  Level FlightAware Approximate